createdAt,value
2023-05-13T00:02:45.738Z,100686.28
2023-05-13T00:06:58.143Z,100688.16
2023-05-13T00:11:10.881Z,100686.22
2023-05-13T00:15:23.533Z,100678.38
2023-05-13T00:19:36.037Z,100680.28
2023-05-13T00:23:48.753Z,100687.28
2023-05-13T00:28:01.330Z,100686.63
2023-05-13T00:32:13.777Z,100688.16
2023-05-13T00:36:27.707Z,100694.13
2023-05-13T00:40:40.255Z,100697.88
2023-05-13T00:44:53.310Z,100689.03
2023-05-13T00:49:05.776Z,100691.56
2023-05-13T00:53:20.986Z,100689.81
2023-05-13T00:57:33.784Z,100694.19
2023-05-13T01:01:56.652Z,100680.94
2023-05-13T01:06:20.881Z,100686.34
2023-05-13T01:10:58.059Z,100679.44
2023-05-13T01:15:15.556Z,100686.44
2023-05-13T01:19:54.929Z,100686.41
2023-05-13T01:24:08.019Z,100686.41
2023-05-13T01:28:20.914Z,100686.38
2023-05-13T01:32:38.899Z,100697.78
2023-05-13T01:36:51.913Z,100689.00
2023-05-13T01:41:06.221Z,100682.78
2023-05-13T01:45:18.913Z,100681.13
2023-05-13T01:49:31.533Z,100688.13
2023-05-13T01:53:44.081Z,100685.47
2023-05-13T01:57:56.696Z,100689.28
2023-05-13T02:02:09.118Z,100697.19
2023-05-13T02:06:21.665Z,100699.72
2023-05-13T02:10:34.556Z,100701.72
2023-05-13T02:14:46.872Z,100706.34
2023-05-13T02:18:59.441Z,100709.84
2023-05-13T02:23:15.112Z,100705.53
2023-05-13T02:27:27.558Z,100698.56
2023-05-13T02:31:41.503Z,100698.63
2023-05-13T02:35:53.861Z,100686.13
2023-05-13T02:40:06.962Z,100685.19
2023-05-13T02:44:19.496Z,100677.34
2023-05-13T02:48:32.207Z,100690.59
2023-05-13T02:52:46.616Z,100685.34
2023-05-13T02:56:59.107Z,100681.59
2023-05-13T03:01:11.910Z,100676.25
2023-05-13T03:05:24.503Z,100685.22
2023-05-13T03:09:39.478Z,100691.56
2023-05-13T03:13:52.702Z,100692.41
2023-05-13T03:18:05.125Z,100688.06
2023-05-13T03:22:18.116Z,100681.72
2023-05-13T03:26:30.849Z,100664.84
2023-05-13T03:30:44.352Z,100680.69
2023-05-13T03:35:01.623Z,100689.75
2023-05-13T03:39:16.484Z,100685.22
2023-05-13T03:43:29.609Z,100692.16
2023-05-13T03:47:46.347Z,100690.44
2023-05-13T03:52:01.936Z,100703.56
2023-05-13T03:56:15.243Z,100710.56
2023-05-13T04:00:30.512Z,100712.28
2023-05-13T04:04:43.220Z,100706.91
2023-05-13T04:08:55.659Z,100709.56
2023-05-13T04:13:08.414Z,100716.59
2023-05-13T04:17:20.998Z,100715.47
2023-05-13T04:21:33.441Z,100709.09
2023-05-13T04:25:53.843Z,100711.44
2023-05-13T04:30:07.206Z,100713.84
2023-05-13T04:34:21.235Z,100722.81
2023-05-13T04:38:34.163Z,100722.25
2023-05-13T04:42:55.012Z,100722.38
2023-05-13T04:47:15.243Z,100718.69
2023-05-13T04:51:28.145Z,100728.41
2023-05-13T04:55:41.282Z,100730.84
2023-05-13T04:59:53.640Z,100725.47
2023-05-13T05:04:06.738Z,100718.88
2023-05-13T05:08:21.123Z,100722.63
2023-05-13T05:12:35.588Z,100734.97
2023-05-13T05:16:48.321Z,100742.56
2023-05-13T05:21:02.511Z,100729.50
2023-05-13T05:25:15.666Z,100732.22
2023-05-13T05:29:28.495Z,100745.97
2023-05-13T05:33:41.722Z,100739.00
2023-05-13T05:37:54.137Z,100744.72
2023-05-13T05:42:08.199Z,100749.97
2023-05-13T05:46:23.077Z,100753.25
2023-05-13T05:50:39.450Z,100754.56
2023-05-13T05:54:53.807Z,100751.25
2023-05-13T05:59:06.334Z,100755.31
2023-05-13T06:03:19.339Z,100756.47
2023-05-13T06:07:32.331Z,100752.47
2023-05-13T06:11:45.080Z,100752.47
2023-05-13T06:15:57.763Z,100758.06
2023-05-13T06:20:10.600Z,100755.22
2023-05-13T06:24:23.155Z,100762.59
2023-05-13T06:28:35.739Z,100758.44
2023-05-13T06:33:00.728Z,100770.22
2023-05-13T06:37:15.723Z,100773.03
2023-05-13T06:41:28.829Z,100770.84
2023-05-13T06:45:46.903Z,100776.50
2023-05-13T06:50:02.036Z,100776.75
2023-05-13T06:54:16.213Z,100783.97
2023-05-13T06:58:28.687Z,100775.66
2023-05-13T07:02:42.035Z,100771.41
2023-05-13T07:06:55.066Z,100777.44
2023-05-13T07:11:07.665Z,100765.69
2023-05-13T07:15:20.719Z,100769.75
2023-05-13T07:19:33.378Z,100762.06
2023-05-13T07:23:45.931Z,100770.91
2023-05-13T07:27:58.377Z,100781.00
2023-05-13T07:32:10.990Z,100780.31
2023-05-13T07:36:24.338Z,100775.13
2023-05-13T07:40:36.970Z,100784.16
2023-05-13T07:44:49.381Z,100784.28
2023-05-13T07:49:03.714Z,100787.00
2023-05-13T07:53:18.287Z,100793.00
2023-05-13T07:57:32.110Z,100817.78
2023-05-13T08:01:44.574Z,100840.94
2023-05-13T08:05:56.978Z,100847.34
2023-05-13T08:10:09.626Z,100838.94
2023-05-13T08:14:22.275Z,100837.41
2023-05-13T08:18:34.713Z,100832.22
2023-05-13T08:22:47.943Z,100833.44
2023-05-13T08:27:00.500Z,100834.31
2023-05-13T08:31:13.487Z,100834.00
2023-05-13T08:35:26.466Z,100831.22
2023-05-13T08:39:38.864Z,100826.53
2023-05-13T08:43:54.590Z,100815.78
2023-05-13T08:48:08.066Z,100815.97
2023-05-13T08:52:23.179Z,100793.94
2023-05-13T08:56:35.868Z,100794.97
2023-05-13T09:00:50.193Z,100800.25
2023-05-13T09:05:10.139Z,100790.28
2023-05-13T09:09:22.705Z,100796.84
2023-05-13T09:13:35.504Z,100793.44
2023-05-13T09:17:53.369Z,100804.47
2023-05-13T09:22:05.998Z,100817.50
2023-05-13T09:26:31.614Z,100821.25
2023-05-13T09:30:46.677Z,100830.34
2023-05-13T09:35:16.938Z,100824.28
2023-05-13T09:39:33.453Z,100826.28
2023-05-13T09:43:46.519Z,100819.78
2023-05-13T09:47:58.977Z,100811.13
2023-05-13T09:52:12.350Z,100809.88
2023-05-13T09:56:24.871Z,100806.66
2023-05-13T10:00:39.214Z,100804.50
2023-05-13T10:04:53.672Z,100813.81
2023-05-13T10:09:09.780Z,100806.13
2023-05-13T10:13:24.833Z,100812.44
2023-05-13T10:17:38.332Z,100809.25
2023-05-13T10:21:52.645Z,100790.84
2023-05-13T10:26:07.508Z,100797.34
2023-05-13T10:30:20.438Z,100792.28
2023-05-13T10:34:35.189Z,100787.25
2023-05-13T10:38:58.004Z,100804.31
2023-05-13T10:43:13.017Z,100787.53
2023-05-13T10:47:25.806Z,100783.59
2023-05-13T10:51:47.571Z,100780.81
2023-05-13T10:56:00.546Z,100774.50
2023-05-13T11:00:18.268Z,100773.34
2023-05-13T11:04:31.399Z,100762.31
2023-05-13T11:08:46.016Z,100767.25
2023-05-13T11:13:16.746Z,100765.50
2023-05-13T11:17:31.659Z,100768.91
2023-05-13T11:21:50.925Z,100775.66
2023-05-13T11:26:15.186Z,100766.88
2023-05-13T11:30:28.402Z,100783.81
2023-05-13T11:34:51.777Z,100790.31
2023-05-13T11:39:12.910Z,100788.94
2023-05-13T11:43:25.432Z,100796.13
2023-05-13T11:47:37.867Z,100802.19
2023-05-13T11:51:50.362Z,100802.63
2023-05-13T11:56:11.219Z,100808.09
2023-05-13T12:00:31.508Z,100810.13
2023-05-13T12:04:45.578Z,100801.28
2023-05-13T12:09:06.016Z,100816.59
2023-05-13T12:13:20.159Z,100823.31
2023-05-13T12:17:32.668Z,100822.19
2023-05-13T12:21:45.359Z,100824.59
2023-05-13T12:25:57.813Z,100838.28
2023-05-13T12:30:15.744Z,100835.47
2023-05-13T12:34:35.144Z,100828.63
2023-05-13T12:39:01.860Z,100816.94
2023-05-13T12:43:15.980Z,100801.25
2023-05-13T12:47:28.382Z,100791.75
2023-05-13T12:51:40.855Z,100787.03
2023-05-13T12:55:53.281Z,100779.69
2023-05-13T13:00:06.609Z,100788.59
2023-05-13T13:04:19.908Z,100786.06
2023-05-13T13:08:32.495Z,100785.34
2023-05-13T13:12:44.984Z,100786.53
2023-05-13T13:16:57.608Z,100774.19
2023-05-13T13:21:11.084Z,100765.88
2023-05-13T13:25:23.795Z,100772.16
2023-05-13T13:29:36.423Z,100770.44
2023-05-13T13:33:48.864Z,100774.00
2023-05-13T13:38:01.335Z,100781.56
2023-05-13T13:42:14.221Z,100779.97
2023-05-13T13:46:26.748Z,100775.81
2023-05-13T13:50:39.440Z,100771.53
2023-05-13T13:54:51.840Z,100761.84
2023-05-13T13:59:04.456Z,100760.91
2023-05-13T14:03:16.963Z,100767.69
2023-05-13T14:07:29.622Z,100759.84
2023-05-13T14:11:42.089Z,100778.31
2023-05-13T14:15:54.671Z,100768.22
2023-05-13T14:20:07.685Z,100782.69
2023-05-13T14:24:20.232Z,100778.38
2023-05-13T14:28:32.769Z,100768.31
2023-05-13T14:32:45.620Z,100765.22
2023-05-13T14:36:58.052Z,100765.47
2023-05-13T14:41:10.902Z,100774.03
2023-05-13T14:45:23.258Z,100782.56
2023-05-13T14:49:35.960Z,100766.31
2023-05-13T14:53:48.304Z,100755.94
2023-05-13T14:58:01.480Z,100760.69
2023-05-13T15:02:15.062Z,100764.50
2023-05-13T15:06:27.772Z,100761.84
2023-05-13T15:10:40.232Z,100756.34
2023-05-13T15:14:56.328Z,100762.38
2023-05-13T15:19:08.968Z,100771.88
2023-05-13T15:23:21.685Z,100771.88
2023-05-13T15:27:34.152Z,100762.88
2023-05-13T15:31:49.028Z,100742.84
2023-05-13T15:36:01.774Z,100737.47
2023-05-13T15:40:15.340Z,100719.28
2023-05-13T15:44:28.316Z,100714.09
2023-05-13T15:48:40.964Z,100704.25
2023-05-13T15:52:54.928Z,100702.41
2023-05-13T15:57:07.372Z,100701.47
2023-05-13T16:01:19.866Z,100676.56
2023-05-13T16:05:32.339Z,100663.38
2023-05-13T16:09:45.020Z,100647.00
2023-05-13T16:13:57.607Z,100631.53
2023-05-13T16:18:10.243Z,100639.38
2023-05-13T16:22:31.545Z,100649.66
2023-05-13T16:26:44.023Z,100647.53
2023-05-13T16:30:58.542Z,100641.94
2023-05-13T16:35:14.318Z,100631.75
2023-05-13T16:39:27.069Z,100632.84
2023-05-13T16:43:39.506Z,100627.50
2023-05-13T16:47:51.976Z,100615.97
2023-05-13T16:52:05.637Z,100627.41
2023-05-13T16:56:18.251Z,100615.97
2023-05-13T17:00:30.647Z,100596.66
2023-05-13T17:04:43.090Z,100617.72
2023-05-13T17:08:55.611Z,100624.94
2023-05-13T17:13:08.265Z,100636.75
2023-05-13T17:17:23.882Z,100652.06
2023-05-13T17:21:36.429Z,100660.94
2023-05-13T17:25:49.058Z,100678.66
2023-05-13T17:30:01.549Z,100687.63
2023-05-13T17:34:14.439Z,100696.72
2023-05-13T17:38:27.048Z,100712.84
2023-05-13T17:42:39.524Z,100720.03
2023-05-13T17:46:51.889Z,100725.47
2023-05-13T17:51:04.620Z,100733.50
2023-05-13T17:55:17.068Z,100724.59
2023-05-13T17:59:29.529Z,100725.56
2023-05-13T18:03:41.948Z,100711.19
2023-05-13T18:07:54.527Z,100716.66
2023-05-13T18:12:07.630Z,100711.59
2023-05-13T18:16:20.046Z,100704.94
2023-05-13T18:20:33.972Z,100704.19
2023-05-13T18:24:47.055Z,100704.91
2023-05-13T18:28:59.576Z,100724.88
2023-05-13T18:33:12.229Z,100742.28
2023-05-13T18:37:24.638Z,100759.34
2023-05-13T18:41:37.102Z,100777.03
2023-05-13T18:45:49.518Z,100786.91
2023-05-13T18:50:01.943Z,100791.69
2023-05-13T18:54:15.937Z,100777.97
2023-05-13T18:58:28.953Z,100776.81
2023-05-13T19:02:41.660Z,100779.19
2023-05-13T19:06:54.319Z,100779.25
2023-05-13T19:11:06.774Z,100767.78
2023-05-13T19:15:21.553Z,100744.53
2023-05-13T19:19:33.923Z,100730.25
2023-05-13T19:23:47.705Z,100720.22
2023-05-13T19:28:00.240Z,100718.63
2023-05-13T19:32:12.650Z,100707.16
2023-05-13T19:36:26.498Z,100666.44
2023-05-13T19:40:39.062Z,100662.19
2023-05-13T19:44:51.812Z,100663.44
2023-05-13T19:49:04.190Z,100678.84
2023-05-13T19:53:16.629Z,100674.31
2023-05-13T19:57:30.169Z,100680.53
2023-05-13T20:01:42.931Z,100693.91
2023-05-13T20:05:55.438Z,100701.69
2023-05-13T20:10:08.687Z,100725.25
2023-05-13T20:14:27.875Z,100734.44
2023-05-13T20:18:40.531Z,100757.75
2023-05-13T20:22:53.146Z,100757.94
2023-05-13T20:27:06.199Z,100774.25
2023-05-13T20:31:19.854Z,100772.41
2023-05-13T20:35:32.353Z,100758.50
2023-05-13T20:39:44.745Z,100778.22
2023-05-13T20:43:57.103Z,100784.44
2023-05-13T20:48:09.689Z,100778.28
2023-05-13T20:52:23.300Z,100778.28
2023-05-13T20:56:35.819Z,100771.19
2023-05-13T21:00:48.315Z,100780.28
2023-05-13T21:05:00.851Z,100779.50
2023-05-13T21:09:13.186Z,100766.16
2023-05-13T21:13:26.316Z,100753.78
2023-05-13T21:17:38.735Z,100740.47
2023-05-13T21:21:51.593Z,100746.56
2023-05-13T21:26:07.699Z,100737.78
2023-05-13T21:30:20.187Z,100735.19
2023-05-13T21:34:32.589Z,100731.56
2023-05-13T21:38:44.927Z,100710.97
2023-05-13T21:42:57.304Z,100693.84
2023-05-13T21:47:09.762Z,100697.72
2023-05-13T21:51:22.962Z,100678.28
2023-05-13T21:55:35.403Z,100671.09
2023-05-13T21:59:47.852Z,100679.88
2023-05-13T22:04:00.274Z,100679.00
2023-05-13T22:08:12.659Z,100682.31
2023-05-13T22:12:25.161Z,100671.47
2023-05-13T22:16:38.182Z,100666.19
2023-05-13T22:20:51.561Z,100673.16
2023-05-13T22:25:04.138Z,100626.59
2023-05-13T22:29:16.583Z,100615.88
2023-05-13T22:33:30.395Z,100632.94
2023-05-13T22:37:43.027Z,100649.78
2023-05-13T22:41:56.031Z,100652.50
2023-05-13T22:46:08.406Z,100664.03
2023-05-13T22:50:20.978Z,100657.84
2023-05-13T22:54:33.421Z,100646.25
2023-05-13T22:58:46.648Z,100627.16
2023-05-13T23:02:59.187Z,100639.66
2023-05-13T23:07:11.554Z,100612.81
2023-05-13T23:11:24.007Z,100618.16
2023-05-13T23:15:39.603Z,100621.84
2023-05-13T23:19:51.966Z,100599.28
2023-05-13T23:24:04.531Z,100602.09
2023-05-13T23:28:17.063Z,100586.88
2023-05-13T23:32:29.448Z,100567.38
2023-05-13T23:36:41.990Z,100539.78
2023-05-13T23:40:54.432Z,100533.13
2023-05-13T23:45:07.416Z,100529.78
2023-05-13T23:49:19.642Z,100523.47
2023-05-13T23:53:32.458Z,100533.13
2023-05-13T23:57:44.852Z,100520.72
